Terminal Aerodrome Forecast
Issued by NWS

Current Version | Previous Version | Graphics & Text | Print | Product List | Glossary On
Versions: 1 2 3 4 5 6 7 8 9 10 11 12 13 14 15 16 17 18 19 20
251
FTUS41 KPBZ 182337
TAFMGW
TAF
KMGW 182337Z 1900/1924 05003KT P6SM FEW100
     FM190800 00000KT 3/4SM BR BKN001
     FM191100 00000KT P6SM SCT150=

USA.gov is the U.S. government's official web portal to all federal, state and local government web resources and services.